sensor_id;sensor_type;location;lat;lon;timestamp;P1;durP1;ratioP1;P2;durP2;ratioP2
5718;SDS011;2884;47.734;9.244;2024-03-02T00:00:57;10.07;;;7.70;;
5718;SDS011;2884;47.734;9.244;2024-03-02T00:03:23;8.83;;;7.90;;
5718;SDS011;2884;47.734;9.244;2024-03-02T00:05:49;8.97;;;7.50;;
5718;SDS011;2884;47.734;9.244;2024-03-02T00:08:17;8.97;;;7.03;;
5718;SDS011;2884;47.734;9.244;2024-03-02T00:10:49;11.10;;;7.60;;
5718;SDS011;2884;47.734;9.244;2024-03-02T00:13:15;7.10;;;6.40;;
5718;SDS011;2884;47.734;9.244;2024-03-02T00:15:48;8.60;;;7.70;;
5718;SDS011;2884;47.734;9.244;2024-03-02T00:18:19;9.63;;;7.53;;
5718;SDS011;2884;47.734;9.244;2024-03-02T00:20:45;7.73;;;6.93;;
5718;SDS011;2884;47.734;9.244;2024-03-02T00:23:15;7.40;;;6.70;;
5718;SDS011;2884;47.734;9.244;2024-03-02T00:25:42;8.43;;;7.63;;
5718;SDS011;2884;47.734;9.244;2024-03-02T00:30:57;10.13;;;8.17;;
5718;SDS011;2884;47.734;9.244;2024-03-02T00:33:30;8.27;;;7.47;;
5718;SDS011;2884;47.734;9.244;2024-03-02T00:35:57;11.37;;;7.83;;
5718;SDS011;2884;47.734;9.244;2024-03-02T00:38:25;9.23;;;7.63;;
5718;SDS011;2884;47.734;9.244;2024-03-02T00:40:52;9.77;;;8.60;;
5718;SDS011;2884;47.734;9.244;2024-03-02T00:46:06;9.67;;;8.23;;
5718;SDS011;2884;47.734;9.244;2024-03-02T00:48:32;9.50;;;8.20;;
5718;SDS011;2884;47.734;9.244;2024-03-02T00:51:01;10.70;;;8.13;;
5718;SDS011;2884;47.734;9.244;2024-03-02T00:53:31;8.47;;;7.60;;
5718;SDS011;2884;47.734;9.244;2024-03-02T00:56:08;9.20;;;7.97;;
5718;SDS011;2884;47.734;9.244;2024-03-02T00:58:34;9.73;;;8.20;;
5718;SDS011;2884;47.734;9.244;2024-03-02T01:01:00;8.80;;;7.27;;
5718;SDS011;2884;47.734;9.244;2024-03-02T01:03:25;8.63;;;7.63;;
5718;SDS011;2884;47.734;9.244;2024-03-02T01:05:51;8.77;;;7.87;;
5718;SDS011;2884;47.734;9.244;2024-03-02T01:08:16;9.63;;;8.00;;
5718;SDS011;2884;47.734;9.244;2024-03-02T01:10:43;9.17;;;8.17;;
5718;SDS011;2884;47.734;9.244;2024-03-02T01:13:08;8.57;;;7.33;;
5718;SDS011;2884;47.734;9.244;2024-03-02T01:15:34;11.90;;;8.80;;
5718;SDS011;2884;47.734;9.244;2024-03-02T01:18:00;8.37;;;7.27;;
5718;SDS011;2884;47.734;9.244;2024-03-02T01:20:25;9.87;;;7.77;;
5718;SDS011;2884;47.734;9.244;2024-03-02T01:22:51;9.13;;;7.93;;
5718;SDS011;2884;47.734;9.244;2024-03-02T01:25:17;13.30;;;9.93;;
5718;SDS011;2884;47.734;9.244;2024-03-02T01:27:43;12.40;;;10.07;;
5718;SDS011;2884;47.734;9.244;2024-03-02T01:30:09;15.93;;;10.53;;
5718;SDS011;2884;47.734;9.244;2024-03-02T01:32:37;17.40;;;11.50;;
5718;SDS011;2884;47.734;9.244;2024-03-02T01:35:04;15.77;;;11.70;;
5718;SDS011;2884;47.734;9.244;2024-03-02T01:37:31;16.80;;;11.50;;
5718;SDS011;2884;47.734;9.244;2024-03-02T01:40:00;16.10;;;11.80;;
5718;SDS011;2884;47.734;9.244;2024-03-02T01:42:26;20.23;;;13.40;;
5718;SDS011;2884;47.734;9.244;2024-03-02T01:44:51;16.70;;;11.43;;
5718;SDS011;2884;47.734;9.244;2024-03-02T01:47:17;17.87;;;11.60;;
5718;SDS011;2884;47.734;9.244;2024-03-02T01:49:43;16.83;;;11.03;;
5718;SDS011;2884;47.734;9.244;2024-03-02T01:52:08;16.33;;;11.10;;
5718;SDS011;2884;47.734;9.244;2024-03-02T01:54:34;14.30;;;10.07;;
5718;SDS011;2884;47.734;9.244;2024-03-02T01:57:00;16.27;;;10.50;;
5718;SDS011;2884;47.734;9.244;2024-03-02T01:59:28;19.33;;;11.40;;
5718;SDS011;2884;47.734;9.244;2024-03-02T02:01:54;15.13;;;12.03;;
5718;SDS011;2884;47.734;9.244;2024-03-02T02:04:20;17.77;;;11.57;;
5718;SDS011;2884;47.734;9.244;2024-03-02T02:06:52;16.13;;;11.10;;
5718;SDS011;2884;47.734;9.244;2024-03-02T02:09:18;22.23;;;11.93;;
5718;SDS011;2884;47.734;9.244;2024-03-02T02:11:43;18.43;;;11.73;;
5718;SDS011;2884;47.734;9.244;2024-03-02T02:14:09;16.67;;;12.00;;
5718;SDS011;2884;47.734;9.244;2024-03-02T02:16:35;17.80;;;11.83;;
5718;SDS011;2884;47.734;9.244;2024-03-02T02:19:01;16.50;;;11.77;;
5718;SDS011;2884;47.734;9.244;2024-03-02T02:21:26;18.27;;;12.67;;
5718;SDS011;2884;47.734;9.244;2024-03-02T02:23:52;18.17;;;12.77;;
5718;SDS011;2884;47.734;9.244;2024-03-02T02:26:18;14.80;;;11.50;;
5718;SDS011;2884;47.734;9.244;2024-03-02T02:28:43;13.50;;;10.83;;
5718;SDS011;2884;47.734;9.244;2024-03-02T02:31:15;17.23;;;12.60;;
5718;SDS011;2884;47.734;9.244;2024-03-02T02:33:41;14.80;;;12.00;;
5718;SDS011;2884;47.734;9.244;2024-03-02T02:36:09;16.87;;;12.70;;
5718;SDS011;2884;47.734;9.244;2024-03-02T02:38:37;20.00;;;13.33;;
5718;SDS011;2884;47.734;9.244;2024-03-02T02:41:04;18.90;;;12.40;;
5718;SDS011;2884;47.734;9.244;2024-03-02T02:43:30;20.20;;;14.07;;
5718;SDS011;2884;47.734;9.244;2024-03-02T02:45:56;17.87;;;13.80;;
5718;SDS011;2884;47.734;9.244;2024-03-02T02:48:22;18.97;;;13.13;;
5718;SDS011;2884;47.734;9.244;2024-03-02T02:50:48;18.70;;;13.17;;
5718;SDS011;2884;47.734;9.244;2024-03-02T02:53:13;18.67;;;14.90;;
5718;SDS011;2884;47.734;9.244;2024-03-02T02:55:39;19.40;;;14.40;;
5718;SDS011;2884;47.734;9.244;2024-03-02T02:58:11;18.13;;;13.17;;
5718;SDS011;2884;47.734;9.244;2024-03-02T03:00:37;23.50;;;15.00;;
5718;SDS011;2884;47.734;9.244;2024-03-02T03:03:03;22.13;;;15.10;;
5718;SDS011;2884;47.734;9.244;2024-03-02T03:05:29;21.63;;;15.27;;
5718;SDS011;2884;47.734;9.244;2024-03-02T03:07:55;19.80;;;14.50;;
5718;SDS011;2884;47.734;9.244;2024-03-02T03:10:20;20.93;;;14.10;;
5718;SDS011;2884;47.734;9.244;2024-03-02T03:12:48;19.53;;;13.60;;
5718;SDS011;2884;47.734;9.244;2024-03-02T03:15:14;24.07;;;15.40;;
5718;SDS011;2884;47.734;9.244;2024-03-02T03:17:41;15.03;;;12.20;;
5718;SDS011;2884;47.734;9.244;2024-03-02T03:20:07;18.60;;;13.40;;
5718;SDS011;2884;47.734;9.244;2024-03-02T03:22:36;17.87;;;13.50;;
5718;SDS011;2884;47.734;9.244;2024-03-02T03:25:02;14.30;;;11.77;;
5718;SDS011;2884;47.734;9.244;2024-03-02T03:27:28;18.13;;;13.80;;
5718;SDS011;2884;47.734;9.244;2024-03-02T03:29:54;15.40;;;12.33;;
5718;SDS011;2884;47.734;9.244;2024-03-02T03:32:20;15.67;;;12.03;;
5718;SDS011;2884;47.734;9.244;2024-03-02T03:34:46;16.57;;;12.60;;
5718;SDS011;2884;47.734;9.244;2024-03-02T03:37:13;16.43;;;12.60;;
5718;SDS011;2884;47.734;9.244;2024-03-02T03:39:39;19.73;;;13.10;;
5718;SDS011;2884;47.734;9.244;2024-03-02T03:42:05;17.93;;;14.00;;
5718;SDS011;2884;47.734;9.244;2024-03-02T03:44:30;18.73;;;13.70;;
5718;SDS011;2884;47.734;9.244;2024-03-02T03:46:56;19.57;;;13.43;;
5718;SDS011;2884;47.734;9.244;2024-03-02T03:49:22;20.20;;;14.17;;
5718;SDS011;2884;47.734;9.244;2024-03-02T03:51:48;21.23;;;13.00;;
5718;SDS011;2884;47.734;9.244;2024-03-02T03:54:14;16.97;;;12.00;;
5718;SDS011;2884;47.734;9.244;2024-03-02T03:56:40;17.17;;;11.73;;
5718;SDS011;2884;47.734;9.244;2024-03-02T03:59:06;34.03;;;12.97;;
5718;SDS011;2884;47.734;9.244;2024-03-02T04:01:31;28.47;;;14.30;;
5718;SDS011;2884;47.734;9.244;2024-03-02T04:03:57;23.53;;;12.97;;
5718;SDS011;2884;47.734;9.244;2024-03-02T04:06:23;15.70;;;13.13;;
5718;SDS011;2884;47.734;9.244;2024-03-02T04:08:49;41.97;;;15.27;;
5718;SDS011;2884;47.734;9.244;2024-03-02T04:11:14;31.63;;;15.30;;
5718;SDS011;2884;47.734;9.244;2024-03-02T04:13:40;46.73;;;13.67;;
5718;SDS011;2884;47.734;9.244;2024-03-02T04:16:05;15.20;;;11.70;;
5718;SDS011;2884;47.734;9.244;2024-03-02T04:18:31;16.10;;;13.07;;
5718;SDS011;2884;47.734;9.244;2024-03-02T04:21:00;21.63;;;12.60;;
5718;SDS011;2884;47.734;9.244;2024-03-02T04:23:26;27.20;;;14.43;;
5718;SDS011;2884;47.734;9.244;2024-03-02T04:25:51;16.00;;;12.90;;
5718;SDS011;2884;47.734;9.244;2024-03-02T04:28:20;14.13;;;12.07;;
5718;SDS011;2884;47.734;9.244;2024-03-02T04:30:46;16.83;;;13.07;;
5718;SDS011;2884;47.734;9.244;2024-03-02T04:33:11;35.20;;;12.80;;
5718;SDS011;2884;47.734;9.244;2024-03-02T04:35:37;12.33;;;10.73;;
5718;SDS011;2884;47.734;9.244;2024-03-02T04:38:02;23.73;;;11.87;;
5718;SDS011;2884;47.734;9.244;2024-03-02T04:40:28;14.73;;;12.63;;
5718;SDS011;2884;47.734;9.244;2024-03-02T04:42:54;22.10;;;12.67;;
5718;SDS011;2884;47.734;9.244;2024-03-02T04:45:19;24.23;;;12.00;;
5718;SDS011;2884;47.734;9.244;2024-03-02T04:47:45;20.27;;;11.70;;
5718;SDS011;2884;47.734;9.244;2024-03-02T04:50:10;19.33;;;12.87;;
5718;SDS011;2884;47.734;9.244;2024-03-02T04:52:36;14.20;;;11.17;;
5718;SDS011;2884;47.734;9.244;2024-03-02T04:55:02;13.83;;;11.20;;
5718;SDS011;2884;47.734;9.244;2024-03-02T04:57:46;14.13;;;11.30;;
5718;SDS011;2884;47.734;9.244;2024-03-02T05:00:13;14.73;;;12.07;;
5718;SDS011;2884;47.734;9.244;2024-03-02T05:02:38;18.87;;;12.33;;
5718;SDS011;2884;47.734;9.244;2024-03-02T05:05:04;17.47;;;12.13;;
5718;SDS011;2884;47.734;9.244;2024-03-02T05:07:30;15.90;;;12.20;;
5718;SDS011;2884;47.734;9.244;2024-03-02T05:09:55;23.13;;;13.20;;
5718;SDS011;2884;47.734;9.244;2024-03-02T05:12:21;19.13;;;13.20;;
5718;SDS011;2884;47.734;9.244;2024-03-02T05:15:05;18.17;;;13.37;;
5718;SDS011;2884;47.734;9.244;2024-03-02T05:17:32;16.23;;;12.80;;
5718;SDS011;2884;47.734;9.244;2024-03-02T05:19:58;20.70;;;12.10;;
5718;SDS011;2884;47.734;9.244;2024-03-02T05:22:24;15.47;;;11.60;;
5718;SDS011;2884;47.734;9.244;2024-03-02T05:24:49;16.87;;;12.30;;
5718;SDS011;2884;47.734;9.244;2024-03-02T05:27:15;15.40;;;12.20;;
5718;SDS011;2884;47.734;9.244;2024-03-02T05:29:41;15.97;;;11.80;;
5718;SDS011;2884;47.734;9.244;2024-03-02T05:32:06;24.13;;;13.87;;
5718;SDS011;2884;47.734;9.244;2024-03-02T05:34:32;14.60;;;12.23;;
5718;SDS011;2884;47.734;9.244;2024-03-02T05:37:00;21.37;;;13.17;;
5718;SDS011;2884;47.734;9.244;2024-03-02T05:39:25;17.47;;;13.20;;
5718;SDS011;2884;47.734;9.244;2024-03-02T05:42:00;17.10;;;12.60;;
5718;SDS011;2884;47.734;9.244;2024-03-02T05:44:26;20.30;;;13.17;;
5718;SDS011;2884;47.734;9.244;2024-03-02T05:46:51;17.33;;;13.33;;
5718;SDS011;2884;47.734;9.244;2024-03-02T05:49:17;15.43;;;12.37;;
5718;SDS011;2884;47.734;9.244;2024-03-02T05:51:43;13.70;;;11.10;;
5718;SDS011;2884;47.734;9.244;2024-03-02T05:54:09;13.40;;;11.50;;
5718;SDS011;2884;47.734;9.244;2024-03-02T05:56:34;12.03;;;10.20;;
5718;SDS011;2884;47.734;9.244;2024-03-02T05:59:00;12.87;;;11.20;;
5718;SDS011;2884;47.734;9.244;2024-03-02T06:01:38;14.37;;;12.20;;
5718;SDS011;2884;47.734;9.244;2024-03-02T06:04:05;22.97;;;13.67;;
5718;SDS011;2884;47.734;9.244;2024-03-02T06:06:30;33.13;;;13.37;;
5718;SDS011;2884;47.734;9.244;2024-03-02T06:08:59;15.83;;;12.50;;
5718;SDS011;2884;47.734;9.244;2024-03-02T06:11:25;15.60;;;11.80;;
5718;SDS011;2884;47.734;9.244;2024-03-02T06:13:51;13.60;;;11.90;;
5718;SDS011;2884;47.734;9.244;2024-03-02T06:16:17;14.47;;;12.33;;
5718;SDS011;2884;47.734;9.244;2024-03-02T06:18:42;17.40;;;12.70;;
5718;SDS011;2884;47.734;9.244;2024-03-02T06:21:08;15.77;;;12.43;;
5718;SDS011;2884;47.734;9.244;2024-03-02T06:23:33;19.70;;;12.77;;
5718;SDS011;2884;47.734;9.244;2024-03-02T06:26:00;20.90;;;13.13;;
5718;SDS011;2884;47.734;9.244;2024-03-02T06:28:27;28.93;;;13.67;;
5718;SDS011;2884;47.734;9.244;2024-03-02T06:30:53;17.40;;;13.27;;
5718;SDS011;2884;47.734;9.244;2024-03-02T06:33:19;17.13;;;13.27;;
5718;SDS011;2884;47.734;9.244;2024-03-02T06:35:45;16.30;;;12.57;;
5718;SDS011;2884;47.734;9.244;2024-03-02T06:38:11;15.90;;;11.57;;
5718;SDS011;2884;47.734;9.244;2024-03-02T06:40:37;17.30;;;12.77;;
5718;SDS011;2884;47.734;9.244;2024-03-02T06:43:05;17.30;;;12.73;;
5718;SDS011;2884;47.734;9.244;2024-03-02T06:45:31;16.83;;;12.47;;
5718;SDS011;2884;47.734;9.244;2024-03-02T06:47:59;20.50;;;13.00;;
5718;SDS011;2884;47.734;9.244;2024-03-02T06:50:24;21.07;;;13.53;;
5718;SDS011;2884;47.734;9.244;2024-03-02T06:52:50;17.80;;;13.17;;
5718;SDS011;2884;47.734;9.244;2024-03-02T06:55:16;38.70;;;15.07;;
5718;SDS011;2884;47.734;9.244;2024-03-02T06:57:41;14.73;;;12.37;;
5718;SDS011;2884;47.734;9.244;2024-03-02T07:00:07;26.50;;;14.70;;
5718;SDS011;2884;47.734;9.244;2024-03-02T07:02:34;18.10;;;13.40;;
5718;SDS011;2884;47.734;9.244;2024-03-02T07:05:01;25.90;;;14.43;;
5718;SDS011;2884;47.734;9.244;2024-03-02T07:07:27;24.83;;;13.33;;
5718;SDS011;2884;47.734;9.244;2024-03-02T07:09:53;15.83;;;12.77;;
5718;SDS011;2884;47.734;9.244;2024-03-02T07:12:19;15.57;;;12.70;;
5718;SDS011;2884;47.734;9.244;2024-03-02T07:14:44;20.63;;;13.83;;
5718;SDS011;2884;47.734;9.244;2024-03-02T07:17:33;16.43;;;12.50;;
5718;SDS011;2884;47.734;9.244;2024-03-02T07:19:59;19.03;;;12.10;;
5718;SDS011;2884;47.734;9.244;2024-03-02T07:22:24;14.53;;;11.40;;
5718;SDS011;2884;47.734;9.244;2024-03-02T07:24:50;11.30;;;10.10;;
5718;SDS011;2884;47.734;9.244;2024-03-02T07:27:16;15.40;;;11.07;;
5718;SDS011;2884;47.734;9.244;2024-03-02T07:29:42;15.57;;;11.90;;
5718;SDS011;2884;47.734;9.244;2024-03-02T07:32:09;16.40;;;12.30;;
5718;SDS011;2884;47.734;9.244;2024-03-02T07:34:35;16.50;;;12.87;;
5718;SDS011;2884;47.734;9.244;2024-03-02T07:37:01;13.87;;;11.27;;
5718;SDS011;2884;47.734;9.244;2024-03-02T07:39:27;22.20;;;11.83;;
5718;SDS011;2884;47.734;9.244;2024-03-02T07:41:53;12.97;;;10.60;;
5718;SDS011;2884;47.734;9.244;2024-03-02T07:44:18;16.50;;;11.87;;
5718;SDS011;2884;47.734;9.244;2024-03-02T07:46:45;11.17;;;9.60;;
5718;SDS011;2884;47.734;9.244;2024-03-02T07:49:20;15.47;;;11.17;;
5718;SDS011;2884;47.734;9.244;2024-03-02T07:51:46;16.07;;;11.70;;
5718;SDS011;2884;47.734;9.244;2024-03-02T07:54:11;17.87;;;11.50;;
5718;SDS011;2884;47.734;9.244;2024-03-02T07:56:37;16.87;;;12.00;;
5718;SDS011;2884;47.734;9.244;2024-03-02T07:59:03;16.90;;;13.03;;
5718;SDS011;2884;47.734;9.244;2024-03-02T08:01:30;15.33;;;11.10;;
5718;SDS011;2884;47.734;9.244;2024-03-02T08:03:59;17.60;;;12.87;;
5718;SDS011;2884;47.734;9.244;2024-03-02T08:06:26;12.00;;;10.70;;
5718;SDS011;2884;47.734;9.244;2024-03-02T08:08:58;15.23;;;12.30;;
5718;SDS011;2884;47.734;9.244;2024-03-02T08:11:24;19.73;;;11.90;;
5718;SDS011;2884;47.734;9.244;2024-03-02T08:13:52;20.10;;;11.60;;
5718;SDS011;2884;47.734;9.244;2024-03-02T08:16:20;13.73;;;11.00;;
5718;SDS011;2884;47.734;9.244;2024-03-02T08:18:50;13.63;;;11.50;;
5718;SDS011;2884;47.734;9.244;2024-03-02T08:21:16;20.60;;;12.50;;
5718;SDS011;2884;47.734;9.244;2024-03-02T08:23:42;14.43;;;12.20;;
5718;SDS011;2884;47.734;9.244;2024-03-02T08:26:08;15.20;;;11.87;;
5718;SDS011;2884;47.734;9.244;2024-03-02T08:28:34;13.10;;;10.93;;
5718;SDS011;2884;47.734;9.244;2024-03-02T08:31:02;14.60;;;10.83;;
5718;SDS011;2884;47.734;9.244;2024-03-02T08:33:28;13.70;;;11.00;;
5718;SDS011;2884;47.734;9.244;2024-03-02T08:35:54;14.83;;;10.97;;
5718;SDS011;2884;47.734;9.244;2024-03-02T08:38:20;11.93;;;10.47;;
5718;SDS011;2884;47.734;9.244;2024-03-02T08:40:46;15.30;;;11.90;;
5718;SDS011;2884;47.734;9.244;2024-03-02T08:43:12;15.43;;;10.90;;
5718;SDS011;2884;47.734;9.244;2024-03-02T08:45:38;15.47;;;10.93;;
5718;SDS011;2884;47.734;9.244;2024-03-02T08:48:05;14.20;;;10.93;;
5718;SDS011;2884;47.734;9.244;2024-03-02T08:50:34;13.73;;;11.10;;
5718;SDS011;2884;47.734;9.244;2024-03-02T08:53:00;15.50;;;11.90;;
5718;SDS011;2884;47.734;9.244;2024-03-02T08:55:26;14.90;;;11.23;;
5718;SDS011;2884;47.734;9.244;2024-03-02T08:57:52;12.90;;;10.30;;
5718;SDS011;2884;47.734;9.244;2024-03-02T09:00:18;11.70;;;9.50;;
5718;SDS011;2884;47.734;9.244;2024-03-02T09:02:44;11.37;;;9.70;;
5718;SDS011;2884;47.734;9.244;2024-03-02T09:05:10;12.47;;;8.93;;
5718;SDS011;2884;47.734;9.244;2024-03-02T09:07:35;10.40;;;9.13;;
5718;SDS011;2884;47.734;9.244;2024-03-02T09:10:01;11.73;;;10.10;;
5718;SDS011;2884;47.734;9.244;2024-03-02T09:12:27;9.70;;;8.57;;
5718;SDS011;2884;47.734;9.244;2024-03-02T09:14:53;9.40;;;8.30;;
5718;SDS011;2884;47.734;9.244;2024-03-02T09:17:18;11.10;;;9.60;;
5718;SDS011;2884;47.734;9.244;2024-03-02T09:19:44;12.33;;;9.00;;
5718;SDS011;2884;47.734;9.244;2024-03-02T09:22:10;12.50;;;9.87;;
5718;SDS011;2884;47.734;9.244;2024-03-02T09:24:35;13.10;;;9.40;;
5718;SDS011;2884;47.734;9.244;2024-03-02T09:27:01;11.63;;;9.53;;
5718;SDS011;2884;47.734;9.244;2024-03-02T09:29:26;11.20;;;9.60;;
5718;SDS011;2884;47.734;9.244;2024-03-02T09:31:52;12.30;;;10.07;;
5718;SDS011;2884;47.734;9.244;2024-03-02T09:34:17;10.53;;;9.10;;
5718;SDS011;2884;47.734;9.244;2024-03-02T09:36:43;11.47;;;9.93;;
5718;SDS011;2884;47.734;9.244;2024-03-02T09:39:09;12.33;;;10.53;;
5718;SDS011;2884;47.734;9.244;2024-03-02T09:41:38;11.93;;;10.03;;
5718;SDS011;2884;47.734;9.244;2024-03-02T09:44:06;13.63;;;11.13;;
5718;SDS011;2884;47.734;9.244;2024-03-02T09:46:32;12.50;;;10.20;;
5718;SDS011;2884;47.734;9.244;2024-03-02T09:48:58;10.70;;;9.27;;
5718;SDS011;2884;47.734;9.244;2024-03-02T09:51:24;14.57;;;12.23;;
5718;SDS011;2884;47.734;9.244;2024-03-02T09:53:49;12.13;;;10.83;;
5718;SDS011;2884;47.734;9.244;2024-03-02T09:56:16;13.23;;;10.83;;
5718;SDS011;2884;47.734;9.244;2024-03-02T09:58:41;16.37;;;12.27;;
5718;SDS011;2884;47.734;9.244;2024-03-02T10:01:07;14.00;;;11.63;;
5718;SDS011;2884;47.734;9.244;2024-03-02T10:03:36;13.50;;;11.00;;
5718;SDS011;2884;47.734;9.244;2024-03-02T10:06:21;16.70;;;12.60;;
5718;SDS011;2884;47.734;9.244;2024-03-02T10:08:52;15.60;;;11.90;;
5718;SDS011;2884;47.734;9.244;2024-03-02T10:11:27;15.43;;;12.03;;
5718;SDS011;2884;47.734;9.244;2024-03-02T10:14:04;15.23;;;12.33;;
5718;SDS011;2884;47.734;9.244;2024-03-02T10:16:36;14.63;;;12.07;;
5718;SDS011;2884;47.734;9.244;2024-03-02T10:24:15;16.47;;;13.13;;
5718;SDS011;2884;47.734;9.244;2024-03-02T10:26:44;13.57;;;11.70;;
5718;SDS011;2884;47.734;9.244;2024-03-02T10:29:10;13.33;;;10.73;;
5718;SDS011;2884;47.734;9.244;2024-03-02T10:31:40;11.10;;;9.80;;
5718;SDS011;2884;47.734;9.244;2024-03-02T10:34:07;13.40;;;11.23;;
5718;SDS011;2884;47.734;9.244;2024-03-02T10:36:33;12.77;;;10.33;;
5718;SDS011;2884;47.734;9.244;2024-03-02T10:39:02;12.40;;;10.60;;
5718;SDS011;2884;47.734;9.244;2024-03-02T10:41:35;12.20;;;10.90;;
5718;SDS011;2884;47.734;9.244;2024-03-02T10:44:02;9.93;;;8.87;;
5718;SDS011;2884;47.734;9.244;2024-03-02T10:46:29;13.53;;;9.47;;
5718;SDS011;2884;47.734;9.244;2024-03-02T10:49:00;10.10;;;9.00;;
5718;SDS011;2884;47.734;9.244;2024-03-02T10:51:28;9.60;;;8.60;;
5718;SDS011;2884;47.734;9.244;2024-03-02T10:54:00;10.17;;;9.20;;
5718;SDS011;2884;47.734;9.244;2024-03-02T10:56:39;10.60;;;9.60;;
5718;SDS011;2884;47.734;9.244;2024-03-02T11:01:40;9.40;;;8.03;;
5718;SDS011;2884;47.734;9.244;2024-03-02T11:04:08;12.17;;;9.23;;
5718;SDS011;2884;47.734;9.244;2024-03-02T11:06:35;12.80;;;8.73;;
5718;SDS011;2884;47.734;9.244;2024-03-02T11:09:07;10.10;;;8.60;;
5718;SDS011;2884;47.734;9.244;2024-03-02T11:11:40;9.57;;;8.50;;
5718;SDS011;2884;47.734;9.244;2024-03-02T11:14:10;11.20;;;8.27;;
5718;SDS011;2884;47.734;9.244;2024-03-02T11:16:39;12.43;;;9.20;;
5718;SDS011;2884;47.734;9.244;2024-03-02T11:19:07;10.67;;;8.10;;
5718;SDS011;2884;47.734;9.244;2024-03-02T11:21:35;9.57;;;8.33;;
5718;SDS011;2884;47.734;9.244;2024-03-02T11:26:46;12.27;;;8.30;;
5718;SDS011;2884;47.734;9.244;2024-03-02T11:32:04;10.43;;;8.60;;
5718;SDS011;2884;47.734;9.244;2024-03-02T11:36:58;10.77;;;8.20;;
5718;SDS011;2884;47.734;9.244;2024-03-02T11:39:29;9.20;;;7.90;;
5718;SDS011;2884;47.734;9.244;2024-03-02T11:41:56;12.40;;;9.47;;
5718;SDS011;2884;47.734;9.244;2024-03-02T11:44:22;11.63;;;9.27;;
5718;SDS011;2884;47.734;9.244;2024-03-02T11:47:06;9.20;;;8.30;;
5718;SDS011;2884;47.734;9.244;2024-03-02T11:49:36;15.63;;;8.80;;
5718;SDS011;2884;47.734;9.244;2024-03-02T11:52:05;10.10;;;8.60;;
5718;SDS011;2884;47.734;9.244;2024-03-02T11:54:36;8.10;;;7.27;;
5718;SDS011;2884;47.734;9.244;2024-03-02T11:57:05;10.03;;;7.50;;
5718;SDS011;2884;47.734;9.244;2024-03-02T11:59:31;11.40;;;8.73;;
5718;SDS011;2884;47.734;9.244;2024-03-02T12:01:58;10.20;;;9.20;;
5718;SDS011;2884;47.734;9.244;2024-03-02T12:04:24;11.03;;;9.37;;
5718;SDS011;2884;47.734;9.244;2024-03-02T12:06:57;9.30;;;8.40;;
5718;SDS011;2884;47.734;9.244;2024-03-02T12:09:27;9.63;;;8.63;;
5718;SDS011;2884;47.734;9.244;2024-03-02T12:14:29;10.07;;;8.53;;
5718;SDS011;2884;47.734;9.244;2024-03-02T12:16:56;11.73;;;9.60;;
5718;SDS011;2884;47.734;9.244;2024-03-02T12:19:24;11.00;;;9.30;;
5718;SDS011;2884;47.734;9.244;2024-03-02T12:21:51;10.50;;;9.17;;
5718;SDS011;2884;47.734;9.244;2024-03-02T12:24:17;10.33;;;9.17;;
5718;SDS011;2884;47.734;9.244;2024-03-02T12:26:43;10.50;;;9.40;;
5718;SDS011;2884;47.734;9.244;2024-03-02T12:29:09;9.90;;;8.20;;
5718;SDS011;2884;47.734;9.244;2024-03-02T12:31:35;11.30;;;10.03;;
5718;SDS011;2884;47.734;9.244;2024-03-02T12:34:01;11.03;;;9.60;;
5718;SDS011;2884;47.734;9.244;2024-03-02T12:36:28;13.23;;;9.80;;
5718;SDS011;2884;47.734;9.244;2024-03-02T12:38:53;12.30;;;9.27;;
5718;SDS011;2884;47.734;9.244;2024-03-02T12:41:20;11.40;;;8.80;;
5718;SDS011;2884;47.734;9.244;2024-03-02T12:43:46;8.47;;;7.57;;
5718;SDS011;2884;47.734;9.244;2024-03-02T12:46:12;7.67;;;6.83;;
5718;SDS011;2884;47.734;9.244;2024-03-02T12:48:38;8.97;;;7.70;;
5718;SDS011;2884;47.734;9.244;2024-03-02T12:51:07;8.20;;;7.40;;
5718;SDS011;2884;47.734;9.244;2024-03-02T12:53:33;7.47;;;6.67;;
5718;SDS011;2884;47.734;9.244;2024-03-02T12:55:58;9.40;;;7.63;;
5718;SDS011;2884;47.734;9.244;2024-03-02T12:58:24;8.37;;;7.43;;
5718;SDS011;2884;47.734;9.244;2024-03-02T13:01:05;10.90;;;7.70;;
5718;SDS011;2884;47.734;9.244;2024-03-02T13:03:31;8.23;;;6.13;;
5718;SDS011;2884;47.734;9.244;2024-03-02T13:06:01;7.67;;;6.17;;
5718;SDS011;2884;47.734;9.244;2024-03-02T13:08:26;7.40;;;6.20;;
5718;SDS011;2884;47.734;9.244;2024-03-02T13:10:52;6.80;;;6.10;;
5718;SDS011;2884;47.734;9.244;2024-03-02T13:13:18;5.70;;;5.13;;
5718;SDS011;2884;47.734;9.244;2024-03-02T13:15:43;5.10;;;4.60;;
5718;SDS011;2884;47.734;9.244;2024-03-02T13:18:10;5.73;;;4.90;;
5718;SDS011;2884;47.734;9.244;2024-03-02T13:20:36;4.67;;;4.17;;
5718;SDS011;2884;47.734;9.244;2024-03-02T13:23:02;5.40;;;4.50;;
5718;SDS011;2884;47.734;9.244;2024-03-02T13:25:28;5.33;;;4.83;;
5718;SDS011;2884;47.734;9.244;2024-03-02T13:27:53;4.87;;;4.40;;
5718;SDS011;2884;47.734;9.244;2024-03-02T13:30:19;3.70;;;3.33;;
5718;SDS011;2884;47.734;9.244;2024-03-02T13:32:44;4.07;;;3.50;;
5718;SDS011;2884;47.734;9.244;2024-03-02T13:35:13;3.30;;;2.87;;
5718;SDS011;2884;47.734;9.244;2024-03-02T13:37:38;2.60;;;2.40;;
5718;SDS011;2884;47.734;9.244;2024-03-02T13:40:04;4.87;;;4.17;;
5718;SDS011;2884;47.734;9.244;2024-03-02T13:42:30;5.17;;;3.43;;
5718;SDS011;2884;47.734;9.244;2024-03-02T13:44:56;2.30;;;2.10;;
5718;SDS011;2884;47.734;9.244;2024-03-02T13:47:22;2.00;;;1.90;;
5718;SDS011;2884;47.734;9.244;2024-03-02T13:49:47;1.73;;;1.63;;
5718;SDS011;2884;47.734;9.244;2024-03-02T13:52:14;2.27;;;1.60;;
5718;SDS011;2884;47.734;9.244;2024-03-02T13:54:42;1.60;;;1.47;;
5718;SDS011;2884;47.734;9.244;2024-03-02T13:57:08;1.43;;;1.33;;
5718;SDS011;2884;47.734;9.244;2024-03-02T13:59:35;2.50;;;1.40;;
5718;SDS011;2884;47.734;9.244;2024-03-02T14:02:01;6.00;;;2.33;;
5718;SDS011;2884;47.734;9.244;2024-03-02T14:04:29;2.83;;;2.63;;
5718;SDS011;2884;47.734;9.244;2024-03-02T14:06:58;3.53;;;2.17;;
5718;SDS011;2884;47.734;9.244;2024-03-02T14:09:24;2.83;;;1.80;;
5718;SDS011;2884;47.734;9.244;2024-03-02T14:11:50;2.00;;;1.90;;
5718;SDS011;2884;47.734;9.244;2024-03-02T14:14:17;2.10;;;1.53;;
5718;SDS011;2884;47.734;9.244;2024-03-02T14:16:43;3.90;;;1.70;;
5718;SDS011;2884;47.734;9.244;2024-03-02T14:19:10;1.50;;;1.40;;
5718;SDS011;2884;47.734;9.244;2024-03-02T14:21:37;1.87;;;1.77;;
5718;SDS011;2884;47.734;9.244;2024-03-02T14:24:03;1.20;;;1.10;;
5718;SDS011;2884;47.734;9.244;2024-03-02T14:26:29;1.00;;;1.00;;
5718;SDS011;2884;47.734;9.244;2024-03-02T14:28:54;0.90;;;0.90;;
5718;SDS011;2884;47.734;9.244;2024-03-02T14:31:20;0.80;;;0.80;;
5718;SDS011;2884;47.734;9.244;2024-03-02T14:33:46;0.87;;;0.87;;
5718;SDS011;2884;47.734;9.244;2024-03-02T14:36:12;0.73;;;0.73;;
5718;SDS011;2884;47.734;9.244;2024-03-02T14:38:38;1.40;;;1.00;;
5718;SDS011;2884;47.734;9.244;2024-03-02T14:41:04;1.60;;;1.50;;
5718;SDS011;2884;47.734;9.244;2024-03-02T14:43:30;1.03;;;1.00;;
5718;SDS011;2884;47.734;9.244;2024-03-02T14:45:56;1.00;;;0.93;;
5718;SDS011;2884;47.734;9.244;2024-03-02T14:48:21;0.80;;;0.70;;
5718;SDS011;2884;47.734;9.244;2024-03-02T14:50:47;0.90;;;0.73;;
5718;SDS011;2884;47.734;9.244;2024-03-02T14:53:13;1.07;;;0.70;;
5718;SDS011;2884;47.734;9.244;2024-03-02T14:55:38;1.10;;;1.00;;
5718;SDS011;2884;47.734;9.244;2024-03-02T14:58:04;0.73;;;0.73;;
5718;SDS011;2884;47.734;9.244;2024-03-02T15:00:30;1.37;;;0.77;;
5718;SDS011;2884;47.734;9.244;2024-03-02T15:02:55;0.60;;;0.60;;
5718;SDS011;2884;47.734;9.244;2024-03-02T15:05:21;0.80;;;0.80;;
5718;SDS011;2884;47.734;9.244;2024-03-02T15:07:46;0.60;;;0.60;;
5718;SDS011;2884;47.734;9.244;2024-03-02T15:10:12;1.83;;;0.80;;
5718;SDS011;2884;47.734;9.244;2024-03-02T15:12:37;2.43;;;1.03;;
5718;SDS011;2884;47.734;9.244;2024-03-02T15:15:03;1.93;;;0.97;;
5718;SDS011;2884;47.734;9.244;2024-03-02T15:17:29;4.83;;;1.37;;
5718;SDS011;2884;47.734;9.244;2024-03-02T15:19:55;1.27;;;1.00;;